createdAt,value
2019-04-16T00:00:12.840Z,50.64
2019-04-16T00:01:15.072Z,50.87
2019-04-16T00:02:10.963Z,50.89
2019-04-16T00:03:10.971Z,50.84
2019-04-16T00:04:10.955Z,50.98
2019-04-16T00:05:11.211Z,51.19
2019-04-16T00:06:10.918Z,51.08
2019-04-16T00:07:10.929Z,51.2
2019-04-16T00:08:28.423Z,51.27
2019-04-16T00:09:10.944Z,51.17
2019-04-16T00:10:10.911Z,51.06
2019-04-16T00:11:10.913Z,51.14
2019-04-16T00:12:10.923Z,51.52
2019-04-16T00:13:10.993Z,51.45
2019-04-16T00:14:10.924Z,51.58
2019-04-16T00:15:10.949Z,51.47
2019-04-16T00:16:13.850Z,51.3
2019-04-16T00:17:16.593Z,51.29
2019-04-16T00:18:10.996Z,51.21
2019-04-16T00:19:10.948Z,51.21
2019-04-16T00:20:10.930Z,51.2
2019-04-16T00:21:10.944Z,51.01
2019-04-16T00:22:12.652Z,51.16
2019-04-16T00:23:10.992Z,51.04
2019-04-16T00:24:10.973Z,51.14
2019-04-16T00:25:10.942Z,51.4
2019-04-16T00:26:11.012Z,51.55
2019-04-16T00:27:10.928Z,51.25
2019-04-16T00:28:10.924Z,50.89
2019-04-16T00:29:10.984Z,51
2019-04-16T00:30:10.916Z,51.06
2019-04-16T00:31:10.950Z,51.1
2019-04-16T00:32:10.886Z,51.2
2019-04-16T00:33:11.721Z,51.48
2019-04-16T00:34:14.707Z,51.56
2019-04-16T00:35:16.533Z,51.5
2019-04-16T00:36:10.931Z,51.53
2019-04-16T00:37:10.937Z,51.51
2019-04-16T00:38:10.926Z,51.66
2019-04-16T00:39:10.882Z,51.08
2019-04-16T00:40:10.913Z,51.38
2019-04-16T00:41:10.925Z,51.62
2019-04-16T00:42:10.961Z,51.29
2019-04-16T00:43:10.903Z,51.23
2019-04-16T00:44:10.871Z,51.26
2019-04-16T00:45:10.980Z,51.08
2019-04-16T00:46:12.364Z,50.91
2019-04-16T00:47:10.857Z,51.11
2019-04-16T00:48:11.050Z,51.19
2019-04-16T00:49:10.962Z,50.95
2019-04-16T00:50:10.861Z,51.23
2019-04-16T00:51:10.888Z,51.34
2019-04-16T00:52:10.924Z,50.9
2019-04-16T00:53:10.901Z,50.95
2019-04-16T00:54:11.594Z,51.13
2019-04-16T00:55:14.926Z,51.15
2019-04-16T00:56:16.930Z,51.23
2019-04-16T00:57:10.869Z,51.19
2019-04-16T00:58:10.982Z,51.26
2019-04-16T00:59:10.901Z,51.07
2019-04-16T01:00:10.919Z,50.99
2019-04-16T01:01:11.773Z,51.17
2019-04-16T01:02:10.839Z,51
2019-04-16T01:03:10.893Z,50.86
2019-04-16T01:04:10.904Z,50.86
2019-04-16T01:05:10.866Z,50.85
2019-04-16T01:06:10.832Z,50.73
2019-04-16T01:07:10.959Z,50.66
2019-04-16T01:08:10.921Z,50.88
2019-04-16T01:09:11.801Z,50.85
2019-04-16T01:10:11.022Z,50.63
2019-04-16T01:11:10.971Z,50.78
2019-04-16T01:12:10.835Z,50.84
2019-04-16T01:13:10.900Z,50.88
2019-04-16T01:14:10.861Z,50.72
2019-04-16T01:15:10.861Z,50.55
2019-04-16T01:16:10.844Z,50.62
2019-04-16T01:17:10.888Z,51.15
2019-04-16T01:18:10.872Z,51.09
2019-04-16T01:19:13.793Z,51.02
2019-04-16T01:20:13.354Z,50.9
2019-04-16T01:21:15.107Z,50.89
2019-04-16T01:22:16.949Z,50.59
2019-04-16T01:23:10.859Z,50.55
2019-04-16T01:24:10.844Z,50.33
2019-04-16T01:25:10.836Z,50.16
2019-04-16T01:26:10.824Z,50.18
2019-04-16T01:27:10.895Z,50.56
2019-04-16T01:28:10.814Z,50.7
2019-04-16T01:29:10.871Z,50.79
2019-04-16T01:30:10.874Z,50.78
2019-04-16T01:31:10.961Z,50.52
2019-04-16T01:32:12.242Z,50.84
2019-04-16T01:33:15.494Z,50.63
2019-04-16T01:34:10.793Z,50.81
2019-04-16T01:35:10.816Z,50.49
2019-04-16T01:36:10.803Z,50.7
2019-04-16T01:37:10.817Z,50.67
2019-04-16T01:38:10.806Z,50.9
2019-04-16T01:39:18.433Z,50.93
2019-04-16T01:40:10.780Z,50.73
2019-04-16T01:41:10.832Z,50.85
2019-04-16T01:42:10.856Z,50.53
2019-04-16T01:43:11.856Z,50.62
2019-04-16T01:44:10.786Z,50.56
2019-04-16T01:45:10.877Z,50.54
2019-04-16T01:46:10.831Z,50.6
2019-04-16T01:47:10.808Z,50.73
2019-04-16T01:48:10.809Z,50.7
2019-04-16T01:49:11.719Z,50.75
2019-04-16T01:50:14.210Z,50.64
2019-04-16T01:51:16.328Z,50.33
2019-04-16T01:52:10.845Z,50.42
2019-04-16T01:53:11.133Z,50.36
2019-04-16T01:54:11.140Z,50.11
2019-04-16T01:55:11.205Z,50.18
2019-04-16T01:56:11.129Z,50.17
2019-04-16T01:57:11.073Z,50.11
2019-04-16T01:58:10.766Z,50.11
2019-04-16T01:59:10.779Z,50.45
2019-04-16T02:00:10.845Z,50.43
2019-04-16T02:01:12.529Z,50.54
2019-04-16T02:02:16.108Z,50.44
2019-04-16T02:03:10.848Z,50.43
2019-04-16T02:04:10.782Z,50.14
2019-04-16T02:05:10.804Z,50.11
2019-04-16T02:06:10.751Z,50.24
2019-04-16T02:07:10.785Z,50.33
2019-04-16T02:08:10.815Z,50.3
2019-04-16T02:09:23.246Z,50.32
2019-04-16T02:10:11.050Z,50.5
2019-04-16T02:11:11.565Z,50.47
2019-04-16T02:12:14.244Z,50.63
2019-04-16T02:13:16.056Z,50.55
2019-04-16T02:14:10.791Z,50.54
2019-04-16T02:15:10.752Z,50.37
2019-04-16T02:16:10.776Z,50.29
2019-04-16T02:17:10.757Z,49.9
2019-04-16T02:18:10.823Z,50.25
2019-04-16T02:19:10.778Z,50.17
2019-04-16T02:20:10.776Z,50.32
2019-04-16T02:21:11.534Z,50.41
2019-04-16T02:22:14.221Z,50.3
2019-04-16T02:23:17.532Z,50.16
2019-04-16T02:24:10.729Z,50.4
2019-04-16T02:25:10.750Z,50.22
2019-04-16T02:26:10.769Z,50.46
2019-04-16T02:27:10.774Z,50.15
2019-04-16T02:28:10.749Z,49.75
2019-04-16T02:29:10.761Z,49.95
2019-04-16T02:30:10.915Z,50.08
2019-04-16T02:31:16.651Z,50.46
2019-04-16T02:32:10.771Z,50.26
2019-04-16T02:33:10.966Z,50.49
2019-04-16T02:34:11.005Z,50.38
2019-04-16T02:35:11.044Z,50.64
2019-04-16T02:36:10.990Z,50.78
2019-04-16T02:37:10.956Z,50.37
2019-04-16T02:38:14.501Z,50.55
2019-04-16T02:39:10.716Z,50.63
2019-04-16T02:40:19.158Z,50.56
2019-04-16T02:41:10.721Z,50.77
2019-04-16T02:42:11.063Z,50.88
2019-04-16T02:43:10.726Z,50.8
2019-04-16T02:44:17.285Z,50.87
2019-04-16T02:45:10.728Z,51.03
2019-04-16T02:46:10.725Z,50.66
2019-04-16T02:47:10.720Z,50.94
2019-04-16T02:48:17.493Z,50.87
2019-04-16T02:49:10.759Z,50.96
2019-04-16T02:50:10.753Z,51.2
2019-04-16T02:51:10.723Z,51.05
2019-04-16T02:52:17.630Z,51.07
2019-04-16T02:53:10.709Z,51.01
2019-04-16T02:54:10.748Z,51.04
2019-04-16T02:55:11.944Z,51.09
2019-04-16T02:56:19.444Z,51.21
2019-04-16T02:57:11.135Z,51.13
2019-04-16T02:58:10.766Z,51.15
2019-04-16T02:59:14.267Z,51.24
2019-04-16T03:00:10.677Z,51.24
2019-04-16T03:01:10.708Z,51.3
2019-04-16T03:02:10.717Z,51.22
2019-04-16T03:03:10.711Z,51.51
2019-04-16T03:04:10.709Z,51.63
2019-04-16T03:05:10.689Z,51.67
2019-04-16T03:06:10.702Z,51.75
2019-04-16T03:07:10.766Z,51.76
2019-04-16T03:08:11.047Z,51.91
2019-04-16T03:09:10.669Z,52.09
2019-04-16T03:10:14.473Z,51.86
2019-04-16T03:11:10.715Z,51.87
2019-04-16T03:12:10.661Z,51.69
2019-04-16T03:13:10.806Z,51.7
2019-04-16T03:14:10.709Z,51.93
2019-04-16T03:15:10.686Z,51.79
2019-04-16T03:16:10.775Z,51.7
2019-04-16T03:17:12.086Z,51.81
2019-04-16T03:18:16.363Z,51.86
2019-04-16T03:19:10.703Z,51.81
2019-04-16T03:20:10.700Z,51.93
2019-04-16T03:21:10.893Z,51.99
2019-04-16T03:22:11.122Z,51.67
2019-04-16T03:23:11.000Z,51.69
2019-04-16T03:24:10.997Z,51.99
2019-04-16T03:25:14.892Z,51.88
2019-04-16T03:26:10.667Z,52.01
2019-04-16T03:27:10.647Z,51.99
2019-04-16T03:28:10.674Z,52.39
2019-04-16T03:29:10.662Z,52.38
2019-04-16T03:30:10.690Z,52.34
2019-04-16T03:31:23.983Z,52.37
2019-04-16T03:32:15.911Z,52.35
2019-04-16T03:33:16.694Z,52.54
2019-04-16T03:34:10.996Z,52.62
2019-04-16T03:35:10.681Z,52.62
2019-04-16T03:36:10.652Z,52.52
2019-04-16T03:37:10.647Z,52
2019-04-16T03:38:10.642Z,52.34
2019-04-16T03:39:14.465Z,52.43
2019-04-16T03:40:25.916Z,52.53
2019-04-16T03:41:10.992Z,52.35
2019-04-16T03:42:10.649Z,52.17
2019-04-16T03:43:10.648Z,52.4
2019-04-16T03:44:10.664Z,52.09
2019-04-16T03:45:10.670Z,52.32
2019-04-16T03:46:14.711Z,52.31
2019-04-16T03:47:10.660Z,52.65
2019-04-16T03:48:10.667Z,52.9
2019-04-16T03:49:10.635Z,52.89
2019-04-16T03:50:10.900Z,52.94
2019-04-16T03:51:10.819Z,52.79
2019-04-16T03:52:10.818Z,52.37
2019-04-16T03:53:10.930Z,52.45
2019-04-16T03:54:10.689Z,52.65
2019-04-16T03:55:10.958Z,52.58
2019-04-16T03:56:11.046Z,52.72
2019-04-16T03:57:11.070Z,52.82
2019-04-16T03:58:10.623Z,52.7
2019-04-16T03:59:12.874Z,52.57
2019-04-16T04:00:13.680Z,52.79
2019-04-16T04:01:10.770Z,52.64
2019-04-16T04:02:10.638Z,52.48
2019-04-16T04:03:10.709Z,52.76
2019-04-16T04:04:10.633Z,52.97
2019-04-16T04:05:10.616Z,52.72
2019-04-16T04:06:10.616Z,53.07
2019-04-16T04:07:13.933Z,53.57
2019-04-16T04:08:18.393Z,53.32
2019-04-16T04:09:10.642Z,53.3
2019-04-16T04:10:10.623Z,53.51
2019-04-16T04:11:11.363Z,53.48
2019-04-16T04:12:14.708Z,53.32
2019-04-16T04:13:10.666Z,53.41
2019-04-16T04:14:10.866Z,53.23
2019-04-16T04:15:11.043Z,53.09
2019-04-16T04:16:10.664Z,53.18
2019-04-16T04:17:10.630Z,53.59
2019-04-16T04:18:13.314Z,53.58
2019-04-16T04:19:16.467Z,53.64
2019-04-16T04:20:10.649Z,53.42
2019-04-16T04:21:10.630Z,53.41
2019-04-16T04:22:10.712Z,53.54
2019-04-16T04:23:10.854Z,53.37
2019-04-16T04:24:10.703Z,53.04
2019-04-16T04:25:10.720Z,53.31
2019-04-16T04:26:10.782Z,53.37
2019-04-16T04:27:19.807Z,53.24
2019-04-16T04:28:10.751Z,53.36
2019-04-16T04:29:10.620Z,53.41
2019-04-16T04:30:10.748Z,53.45
2019-04-16T04:31:10.607Z,53.64
2019-04-16T04:32:10.602Z,53.51
2019-04-16T04:33:10.587Z,53.5
2019-04-16T04:34:17.870Z,53.13
2019-04-16T04:35:10.618Z,53.38
2019-04-16T04:36:10.603Z,53.29
2019-04-16T04:37:10.563Z,53.38
2019-04-16T04:38:10.704Z,53.37
2019-04-16T04:39:16.396Z,53.58
2019-04-16T04:40:17.851Z,53.41
2019-04-16T04:41:10.622Z,53.35
2019-04-16T04:42:11.152Z,53.31
2019-04-16T04:43:10.607Z,53.47
2019-04-16T04:44:10.665Z,53.39
2019-04-16T04:45:10.853Z,53.59
2019-04-16T04:46:15.835Z,53.47
2019-04-16T04:47:10.625Z,53.52
2019-04-16T04:48:12.604Z,53.68
2019-04-16T04:49:10.577Z,53.85
2019-04-16T04:50:10.608Z,53.68
2019-04-16T04:51:10.588Z,54.02
2019-04-16T04:52:15.478Z,53.83
2019-04-16T04:53:10.600Z,54.05
2019-04-16T04:54:10.606Z,54.06
2019-04-16T04:55:10.557Z,54.06
2019-04-16T04:56:10.578Z,54.03
2019-04-16T04:57:10.615Z,54.01
2019-04-16T04:58:10.561Z,54
2019-04-16T04:59:10.674Z,53.91
2019-04-16T05:00:11.627Z,53.85
2019-04-16T05:01:14.454Z,53.92
2019-04-16T05:02:16.024Z,54.21
2019-04-16T05:03:17.213Z,54.13
2019-04-16T05:04:10.553Z,54.4
2019-04-16T05:05:11.072Z,54.01
2019-04-16T05:06:10.954Z,53.89
2019-04-16T05:07:10.581Z,53.82
2019-04-16T05:08:10.662Z,53.9
2019-04-16T05:09:10.588Z,54.47
2019-04-16T05:10:10.847Z,54.19
2019-04-16T05:11:17.303Z,54.45
2019-04-16T05:12:10.525Z,54.28
2019-04-16T05:13:10.552Z,54.33
2019-04-16T05:14:10.523Z,54.46
2019-04-16T05:15:10.513Z,54.45
2019-04-16T05:16:10.599Z,54.45
2019-04-16T05:17:10.630Z,54.22
2019-04-16T05:18:11.202Z,54.33
2019-04-16T05:19:16.150Z,54.1
2019-04-16T05:20:16.890Z,54.25
2019-04-16T05:21:10.546Z,55.14
2019-04-16T05:22:10.603Z,55.28
2019-04-16T05:23:10.524Z,55.14
2019-04-16T05:24:10.527Z,54.88
2019-04-16T05:25:10.554Z,54.98
2019-04-16T05:26:10.681Z,55.23
2019-04-16T05:27:10.541Z,55.03
2019-04-16T05:28:13.559Z,54.67
2019-04-16T05:29:10.519Z,54.88
2019-04-16T05:30:10.527Z,54.67
2019-04-16T05:31:10.572Z,55.04
2019-04-16T05:32:10.497Z,55.03
2019-04-16T05:33:10.563Z,54.55
2019-04-16T05:34:10.809Z,54.58
2019-04-16T05:35:11.334Z,54.55
2019-04-16T05:36:15.856Z,54.43
2019-04-16T05:37:10.993Z,54.36
2019-04-16T05:38:10.538Z,54.43
2019-04-16T05:39:10.474Z,54.48
2019-04-16T05:40:10.480Z,54.39
2019-04-16T05:41:22.848Z,54.29
2019-04-16T05:42:10.494Z,54.49
2019-04-16T05:43:10.520Z,54.47
2019-04-16T05:44:10.484Z,54.96
2019-04-16T05:45:10.507Z,54.88
2019-04-16T05:46:10.546Z,54.71
2019-04-16T05:47:10.474Z,54.56
2019-04-16T05:48:11.585Z,54.3
2019-04-16T05:49:11.611Z,54.13
2019-04-16T05:50:10.518Z,54.44
2019-04-16T05:51:10.465Z,54.44
2019-04-16T05:52:10.486Z,54.27
2019-04-16T05:53:14.128Z,54.22
2019-04-16T05:54:13.741Z,54.23
2019-04-16T05:55:10.505Z,54.14
2019-04-16T05:56:10.458Z,53.89
2019-04-16T05:57:10.483Z,53.92
2019-04-16T05:58:10.494Z,54.22
2019-04-16T05:59:10.533Z,54.16
2019-04-16T06:00:10.752Z,54.29
2019-04-16T06:01:14.509Z,54.03
2019-04-16T06:02:10.554Z,54.07
2019-04-16T06:03:10.484Z,54.37
2019-04-16T06:04:10.514Z,54.5
2019-04-16T06:05:10.538Z,53.75
2019-04-16T06:06:10.513Z,53.69
2019-04-16T06:07:10.455Z,53.22
2019-04-16T06:08:10.566Z,53.42
2019-04-16T06:09:14.931Z,53.6
2019-04-16T06:10:10.491Z,53.61
2019-04-16T06:11:10.518Z,53.83
2019-04-16T06:12:10.410Z,53.87
2019-04-16T06:13:13.549Z,53.87
2019-04-16T06:14:10.466Z,53.93
2019-04-16T06:15:10.453Z,54.24
2019-04-16T06:16:10.449Z,53.48
2019-04-16T06:17:10.458Z,53.43
2019-04-16T06:18:10.431Z,53.64
2019-04-16T06:19:12.333Z,53.72
2019-04-16T06:20:10.439Z,53.35
2019-04-16T06:21:10.481Z,53.6
2019-04-16T06:22:10.490Z,53.36
2019-04-16T06:23:10.440Z,53.18
2019-04-16T06:24:10.480Z,53.26
2019-04-16T06:25:11.548Z,53.21
2019-04-16T06:26:17.581Z,53.35
2019-04-16T06:27:10.448Z,53.66
2019-04-16T06:28:10.429Z,53.55
2019-04-16T06:29:10.415Z,53.26
2019-04-16T06:30:10.497Z,53.42
2019-04-16T06:31:10.613Z,53.36
2019-04-16T06:32:12.364Z,53.45
2019-04-16T06:33:10.427Z,53.48
2019-04-16T06:34:10.878Z,53.75
2019-04-16T06:35:11.592Z,53.19
2019-04-16T06:36:10.506Z,53.37
2019-04-16T06:37:10.453Z,53.74
2019-04-16T06:38:10.482Z,53.52
2019-04-16T06:39:10.440Z,53.35
2019-04-16T06:40:10.427Z,53.13
2019-04-16T06:41:10.454Z,53.1
2019-04-16T06:42:10.429Z,53.39
2019-04-16T06:43:10.388Z,53.38
2019-04-16T06:44:10.407Z,53.39
2019-04-16T06:45:10.364Z,53.1
2019-04-16T06:46:10.483Z,53.39
2019-04-16T06:47:14.510Z,53.14
2019-04-16T06:48:14.056Z,53.35
2019-04-16T06:49:10.411Z,53.03
2019-04-16T06:50:10.489Z,53.38
2019-04-16T06:51:12.808Z,52.99
2019-04-16T06:52:18.239Z,53.17
2019-04-16T06:53:10.514Z,52.93
2019-04-16T06:54:11.490Z,52.92
2019-04-16T06:55:10.385Z,52.91
2019-04-16T06:56:10.389Z,53.01
2019-04-16T06:57:12.991Z,52.83
2019-04-16T06:58:18.755Z,53.07
2019-04-16T06:59:10.435Z,53.24
2019-04-16T07:00:10.415Z,53.33
2019-04-16T07:01:10.359Z,53.32
2019-04-16T07:02:11.370Z,53.26
2019-04-16T07:03:10.376Z,53.16
2019-04-16T07:04:10.418Z,53.32
2019-04-16T07:05:10.364Z,53.35
2019-04-16T07:06:10.356Z,53.37
2019-04-16T07:07:10.371Z,53.09
2019-04-16T07:08:10.383Z,52.91
2019-04-16T07:09:10.371Z,52.83
2019-04-16T07:10:10.405Z,52.58
2019-04-16T07:11:10.394Z,52.69
2019-04-16T07:12:10.388Z,52.06
2019-04-16T07:13:11.645Z,52.34
2019-04-16T07:14:17.552Z,52.47
2019-04-16T07:15:10.483Z,52.45
2019-04-16T07:16:10.344Z,52.27
2019-04-16T07:17:10.363Z,52.65
2019-04-16T07:18:10.402Z,52.25
2019-04-16T07:19:11.794Z,52.44
2019-04-16T07:20:14.421Z,52.5
2019-04-16T07:21:10.418Z,51.95
2019-04-16T07:22:10.319Z,52.32
2019-04-16T07:23:10.375Z,52.47
2019-04-16T07:24:10.605Z,52.27
2019-04-16T07:25:10.604Z,52.63
2019-04-16T07:26:15.731Z,52.3
2019-04-16T07:27:11.564Z,52.25
2019-04-16T07:28:10.352Z,52.53
2019-04-16T07:29:11.308Z,52.27
2019-04-16T07:30:10.711Z,52.45
2019-04-16T07:32:11.021Z,52.3
2019-04-16T07:33:10.331Z,52.27
2019-04-16T07:33:32.435Z,52.32
2019-04-16T07:34:10.416Z,51.99
2019-04-16T07:35:10.613Z,52.46
2019-04-16T07:36:10.522Z,52.81
2019-04-16T07:37:10.320Z,51.94
2019-04-16T07:38:12.194Z,52.14
2019-04-16T07:39:29.936Z,52.08
2019-04-16T07:40:10.796Z,51.78
2019-04-16T07:41:12.620Z,51.57
2019-04-16T07:42:23.531Z,51.4
2019-04-16T07:43:10.553Z,51.32
2019-04-16T07:44:11.498Z,51.07
2019-04-16T07:45:13.395Z,50.6
2019-04-16T07:46:10.334Z,50.43
2019-04-16T07:47:10.572Z,50.67
2019-04-16T07:48:10.316Z,51.17
2019-04-16T07:49:10.349Z,50.98
2019-04-16T07:50:10.286Z,50.07
2019-04-16T07:51:10.333Z,51.49
2019-04-16T07:52:12.596Z,51.02
2019-04-16T07:53:14.651Z,50.53
2019-04-16T07:54:10.281Z,50.24
2019-04-16T07:55:10.643Z,49.93
2019-04-16T07:56:10.366Z,50.46
2019-04-16T07:57:10.358Z,49.92
2019-04-16T07:58:10.669Z,50.51
2019-04-16T07:59:10.343Z,50.42
2019-04-16T08:00:10.351Z,50.28
2019-04-16T08:01:16.650Z,50.3
2019-04-16T08:02:10.304Z,50.68
2019-04-16T08:03:10.290Z,50.66
2019-04-16T08:04:10.319Z,51.12
2019-04-16T08:05:10.350Z,51.08
2019-04-16T08:06:14.639Z,50.5
2019-04-16T08:07:10.278Z,50.1
2019-04-16T08:08:10.306Z,50.06
2019-04-16T08:09:10.273Z,50.29
2019-04-16T08:10:10.282Z,49.31
2019-04-16T08:11:10.287Z,49.95
2019-04-16T08:12:31.161Z,49.78
2019-04-16T08:13:14.350Z,50.09
2019-04-16T08:14:10.613Z,50.45
2019-04-16T08:15:15.745Z,49.99
2019-04-16T08:16:10.272Z,50.32
2019-04-16T08:17:10.282Z,50.69
2019-04-16T08:18:10.294Z,51.87
2019-04-16T08:19:16.348Z,50.92
2019-04-16T08:20:10.736Z,50.34
2019-04-16T08:21:12.668Z,49.42
2019-04-16T08:22:16.928Z,50.03
2019-04-16T08:23:10.314Z,49.58
2019-04-16T08:24:10.305Z,50.49
2019-04-16T08:25:10.289Z,50.32
2019-04-16T08:26:14.123Z,50.86
2019-04-16T08:27:11.026Z,50.62
2019-04-16T08:28:10.343Z,50.69
2019-04-16T08:29:10.541Z,49.63
2019-04-16T08:30:10.233Z,50.18
2019-04-16T08:31:13.467Z,49.96
2019-04-16T08:32:17.141Z,49.22
2019-04-16T08:33:11.942Z,49.07
2019-04-16T08:34:11.131Z,49.58
2019-04-16T08:35:10.359Z,49.56
2019-04-16T08:36:10.265Z,49.42
2019-04-16T08:37:10.253Z,49.76
2019-04-16T08:38:10.265Z,48.91
2019-04-16T08:39:10.339Z,49.83
2019-04-16T08:40:13.232Z,50.51
2019-04-16T08:41:20.098Z,50.23
2019-04-16T08:42:10.223Z,49.64
2019-04-16T08:43:10.303Z,49.35
2019-04-16T08:44:10.936Z,48.88
2019-04-16T08:45:10.488Z,49.61
2019-04-16T08:46:12.055Z,50.88
2019-04-16T08:47:13.211Z,49.66
2019-04-16T08:48:10.428Z,49.2
2019-04-16T08:49:10.258Z,48.95
2019-04-16T08:50:12.788Z,49.17
2019-04-16T08:51:10.291Z,49.35
2019-04-16T08:52:11.515Z,49.24
2019-04-16T08:53:14.529Z,49.93
2019-04-16T08:54:10.318Z,49.69
2019-04-16T08:55:10.312Z,49.68
2019-04-16T08:56:10.208Z,49.61
2019-04-16T08:57:10.647Z,49.9
2019-04-16T08:58:13.044Z,49.94
2019-04-16T08:59:11.815Z,49.33
2019-04-16T09:00:15.646Z,49.61
2019-04-16T09:01:10.216Z,48.9
2019-04-16T09:02:10.919Z,49.01
2019-04-16T09:03:10.667Z,48.74
2019-04-16T09:05:11.999Z,48.69
2019-04-16T09:06:14.419Z,48.47
2019-04-16T09:07:20.798Z,48.3
2019-04-16T09:08:14.329Z,48.46
2019-04-16T09:09:21.750Z,48.32
2019-04-16T09:10:24.309Z,48.91
2019-04-16T09:11:24.120Z,48.62
2019-04-16T09:12:10.337Z,48.98
2019-04-16T09:13:10.186Z,48.29
2019-04-16T09:14:10.277Z,48.07
2019-04-16T09:15:10.328Z,48.43
2019-04-16T09:16:11.277Z,48.15
2019-04-16T09:17:10.625Z,47.77
2019-04-16T09:18:10.199Z,48.69
2019-04-16T09:19:10.171Z,48.09
2019-04-16T09:20:10.180Z,48.48
2019-04-16T09:21:12.058Z,48.39
2019-04-16T09:22:17.273Z,48.91
2019-04-16T09:23:10.209Z,48.15
2019-04-16T09:24:10.518Z,48.7
2019-04-16T09:25:14.336Z,48.15
2019-04-16T09:26:23.935Z,47.43
2019-04-16T09:27:14.330Z,48.09
2019-04-16T09:28:26.611Z,47.25
2019-04-16T09:29:10.616Z,47.98
2019-04-16T09:30:18.156Z,45.47
2019-04-16T09:31:10.519Z,46.48
2019-04-16T09:32:10.336Z,46.24
2019-04-16T09:33:10.153Z,46.58
2019-04-16T09:34:10.169Z,47.04
2019-04-16T09:35:20.545Z,46.1
2019-04-16T09:36:10.204Z,46.53
2019-04-16T09:37:10.282Z,47.25
2019-04-16T09:38:13.515Z,47.6
2019-04-16T09:39:11.250Z,46.69
2019-04-16T09:40:18.718Z,46.14
2019-04-16T09:41:10.217Z,46.34
2019-04-16T09:42:10.202Z,46.2
2019-04-16T09:43:18.674Z,46.56
2019-04-16T09:44:10.238Z,47.13
2019-04-16T09:45:10.265Z,45.58
2019-04-16T09:46:51.380Z,45.62
2019-04-16T09:47:10.153Z,45.8
2019-04-16T09:48:10.203Z,45.45
2019-04-16T09:49:10.140Z,46
2019-04-16T09:50:11.729Z,45.91
2019-04-16T09:51:10.162Z,46.81
2019-04-16T09:52:10.214Z,46.12
2019-04-16T09:53:10.255Z,46.41
2019-04-16T09:54:14.356Z,46.47
2019-04-16T09:55:10.159Z,45.63
2019-04-16T09:56:10.171Z,46.32
2019-04-16T09:57:10.170Z,44.16
2019-04-16T09:58:10.243Z,45.58
2019-04-16T09:59:17.144Z,46.72
2019-04-16T10:00:10.250Z,44.91
2019-04-16T10:01:10.134Z,45.07
2019-04-16T10:02:10.260Z,45.4
2019-04-16T10:03:10.326Z,45.63
2019-04-16T10:04:10.273Z,44.86
2019-04-16T10:05:10.220Z,45.37
2019-04-16T10:06:10.194Z,46.03
2019-04-16T10:07:10.331Z,46.47
2019-04-16T10:08:14.101Z,46.64
2019-04-16T10:09:10.202Z,46.47
2019-04-16T10:10:10.141Z,46.08
2019-04-16T10:11:10.149Z,45.99
2019-04-16T10:12:10.131Z,45.69
2019-04-16T10:13:10.216Z,45.28
2019-04-16T10:14:10.229Z,45.93
2019-04-16T10:15:10.150Z,44.23
2019-04-16T10:16:10.177Z,45.99
2019-04-16T10:17:10.155Z,45.76
2019-04-16T10:18:10.132Z,45.53
2019-04-16T10:19:10.147Z,44.48
2019-04-16T10:20:10.277Z,45.51
2019-04-16T10:21:10.188Z,44.9
2019-04-16T10:22:10.150Z,44.61
2019-04-16T10:23:10.182Z,45.53
2019-04-16T10:24:14.156Z,45.62
2019-04-16T10:25:10.115Z,45.65
2019-04-16T10:26:10.183Z,44.64
2019-04-16T10:27:10.173Z,43.57
2019-04-16T10:28:10.177Z,44.95
2019-04-16T10:29:10.314Z,45.13
2019-04-16T10:30:10.156Z,45.04
2019-04-16T10:31:10.113Z,44.53
2019-04-16T10:32:10.261Z,46.13
2019-04-16T10:33:10.142Z,44.9
2019-04-16T10:34:10.117Z,45.2
2019-04-16T10:35:10.154Z,44.27
2019-04-16T10:36:10.220Z,44.75
2019-04-16T10:37:10.086Z,44.65
2019-04-16T10:38:10.120Z,44.48
2019-04-16T10:39:10.169Z,44.45
2019-04-16T10:40:10.258Z,43.77
2019-04-16T10:41:10.417Z,44.55
2019-04-16T10:42:10.200Z,44.33
2019-04-16T10:43:10.110Z,45.01
2019-04-16T10:44:10.068Z,45.34
2019-04-16T10:45:10.142Z,43.93
2019-04-16T10:46:10.214Z,43.5
2019-04-16T10:47:12.877Z,43.38
2019-04-16T10:48:10.186Z,44.11
2019-04-16T10:49:10.133Z,45.18
2019-04-16T10:50:10.251Z,45.4
2019-04-16T10:51:16.378Z,44.32
2019-04-16T10:52:10.067Z,44.91
2019-04-16T10:53:10.125Z,43.4
2019-04-16T10:54:10.094Z,43.44
2019-04-16T10:55:13.125Z,44.75
2019-04-16T10:56:10.114Z,44.06
2019-04-16T10:57:10.784Z,44.22
2019-04-16T10:58:10.100Z,44.08
2019-04-16T10:59:10.294Z,43.3
2019-04-16T11:00:10.105Z,43.27
2019-04-16T11:01:10.212Z,43.99
2019-04-16T11:02:11.126Z,44.01
2019-04-16T11:03:10.110Z,43.32
2019-04-16T11:04:10.145Z,43.41
2019-04-16T11:05:10.074Z,43.42
2019-04-16T11:06:10.074Z,43.54
2019-04-16T11:07:10.107Z,43.65
2019-04-16T11:08:10.205Z,43.55
2019-04-16T11:09:10.046Z,43.87
2019-04-16T11:10:12.283Z,43.88
2019-04-16T11:11:10.083Z,45.13
2019-04-16T11:12:10.065Z,45.08
2019-04-16T11:13:10.189Z,44.73
2019-04-16T11:14:10.120Z,44.74
2019-04-16T11:15:10.090Z,44.66
2019-04-16T11:16:10.224Z,44.14
2019-04-16T11:17:10.071Z,44.47
2019-04-16T11:18:10.127Z,43.24
2019-04-16T11:19:10.080Z,43.09
2019-04-16T11:20:10.079Z,42.65
2019-04-16T11:21:10.189Z,43.08
2019-04-16T11:22:10.047Z,42.79
2019-04-16T11:23:10.452Z,42.7
2019-04-16T11:24:10.581Z,43.02
2019-04-16T11:25:10.199Z,43.24
2019-04-16T11:26:09.985Z,43.25
2019-04-16T11:27:10.047Z,42.75
2019-04-16T11:28:10.153Z,42.51
2019-04-16T11:29:10.107Z,43.7
2019-04-16T11:30:10.143Z,44.17
2019-04-16T11:31:10.108Z,44.97
2019-04-16T11:32:10.116Z,44.67
2019-04-16T11:33:10.142Z,44.31
2019-04-16T11:34:10.210Z,43.98
2019-04-16T11:35:22.925Z,43.62
2019-04-16T11:36:21.251Z,44.39
2019-04-16T11:37:10.106Z,44.48
2019-04-16T11:38:10.574Z,43.39
2019-04-16T11:39:10.415Z,43.45
2019-04-16T11:40:10.130Z,43.37
2019-04-16T11:41:10.106Z,43.71
2019-04-16T11:42:10.095Z,44.08
2019-04-16T11:43:10.080Z,43.34
2019-04-16T11:44:17.561Z,43.73
2019-04-16T11:45:10.279Z,42.64
2019-04-16T11:46:10.063Z,43
2019-04-16T11:47:10.086Z,43.1
2019-04-16T11:48:10.085Z,43.17
2019-04-16T11:49:10.221Z,43.16
2019-04-16T11:50:10.098Z,43.11
2019-04-16T11:51:10.350Z,44.03
2019-04-16T11:52:10.127Z,43.81
2019-04-16T11:53:10.461Z,44.59
2019-04-16T11:54:12.684Z,44.31
2019-04-16T11:55:10.155Z,44.7
2019-04-16T11:56:10.118Z,43.99
2019-04-16T11:57:14.159Z,43.08
2019-04-16T11:58:10.094Z,43.24
2019-04-16T11:59:10.160Z,44.02
2019-04-16T12:00:10.201Z,43.16
2019-04-16T12:01:10.443Z,43.05
2019-04-16T12:02:10.191Z,41.98
2019-04-16T12:03:10.405Z,43.64
2019-04-16T12:04:17.230Z,43.11
2019-04-16T12:05:10.136Z,43.4
2019-04-16T12:06:10.555Z,43.6
2019-04-16T12:07:10.514Z,43.56
2019-04-16T12:08:10.075Z,43.74
2019-04-16T12:09:10.026Z,42.49
2019-04-16T12:10:10.090Z,42.63
2019-04-16T12:11:10.077Z,42.66
2019-04-16T12:12:10.020Z,42.42
2019-04-16T12:13:10.089Z,41.91
2019-04-16T12:14:10.917Z,42.42
2019-04-16T12:15:10.244Z,42.5
2019-04-16T12:16:10.759Z,42.91
2019-04-16T12:17:10.093Z,42.46
2019-04-16T12:18:10.073Z,42.03
2019-04-16T12:19:10.414Z,42.03
2019-04-16T12:20:10.057Z,42.27
2019-04-16T12:21:10.394Z,42.52
2019-04-16T12:22:10.066Z,42.78
2019-04-16T12:23:10.044Z,43.47
2019-04-16T12:24:10.426Z,43.02
2019-04-16T12:25:10.073Z,42.93
2019-04-16T12:26:10.705Z,42.38
2019-04-16T12:27:10.062Z,42.76
2019-04-16T12:28:13.356Z,42.64
2019-04-16T12:29:10.307Z,42.1
2019-04-16T12:30:10.385Z,42.69
2019-04-16T12:31:10.020Z,41.63
2019-04-16T12:32:09.991Z,42.05
2019-04-16T12:33:15.102Z,43.07
2019-04-16T12:34:10.453Z,42.71
2019-04-16T12:35:10.392Z,43.04
2019-04-16T12:36:15.262Z,42.92
2019-04-16T12:37:10.212Z,42.71
2019-04-16T12:38:19.020Z,42.58
2019-04-16T12:39:10.617Z,42.34
2019-04-16T12:40:09.929Z,42.54
2019-04-16T12:41:10.064Z,43.21
2019-04-16T12:42:10.088Z,41.8
2019-04-16T12:43:16.746Z,41.65
2019-04-16T12:44:09.981Z,42.55
2019-04-16T12:45:10.267Z,42.17
2019-04-16T12:46:10.324Z,41.63
2019-04-16T12:47:10.197Z,41.79
2019-04-16T12:48:10.089Z,41.47
2019-04-16T12:49:10.056Z,42.39
2019-04-16T12:50:10.385Z,41.46
2019-04-16T12:51:10.038Z,42.07
2019-04-16T12:52:17.811Z,41.59
2019-04-16T12:53:10.053Z,41.64
2019-04-16T12:54:10.187Z,41.43
2019-04-16T12:55:10.061Z,40.84
2019-04-16T12:56:10.087Z,41.53